Time;durP1;ratioP1;P1;durP2;ratioP2;P2;SDS_P1;SDS_P2;PMS_P1;PMS_P2;Temp;Humidity;BMP_temperature;BMP_pressure;BME280_temperature;BME280_humidity;BME280_pressure;Samples;Min_cycle;Max_cycle;Signal;HPM_P1;HPM_P2
2022/12/16 00:01:57;;;;;;;36.00;15.20;;;;;;;8.32;74.39;100970.56;5053724;28;20059;-75
2022/12/16 00:04:22;;;;;;;32.22;16.40;;;;;;;8.26;74.12;100973.63;5053317;28;20087;-75
2022/12/16 00:06:48;;;;;;;35.50;15.48;;;;;;;8.29;74.52;100967.25;5051740;28;20021;-77
2022/12/16 00:09:14;;;;;;;26.90;15.15;;;;;;;8.27;74.63;100970.00;5051658;28;20032;-76
2022/12/16 00:11:39;;;;;;;88.60;42.40;;;;;;;7.93;74.45;100911.56;5051880;28;20484;-77
2022/12/16 00:14:05;;;;;;;57.15;27.42;;;;;;;8.20;74.71;100952.59;5050700;28;20476;-75
2022/12/16 00:16:31;;;;;;;54.72;27.80;;;;;;;8.12;74.89;100952.25;5051938;28;20025;-77
2022/12/16 00:18:57;;;;;;;50.53;25.00;;;;;;;8.08;75.61;100948.06;5050816;28;20500;-75
2022/12/16 00:21:27;;;;;;;56.20;27.50;;;;;;;8.01;76.15;100944.09;5049757;28;20086;-76
2022/12/16 00:23:53;;;;;;;64.50;30.63;;;;;;;7.91;76.26;100918.84;5050893;28;20496;-75
2022/12/16 00:26:18;;;;;;;53.17;24.02;;;;;;;7.84;76.76;100923.75;5050843;28;20036;-75
2022/12/16 00:28:44;;;;;;;34.22;20.38;;;;;;;8.03;76.58;100951.06;5050814;28;20017;-75
2022/12/16 00:31:09;;;;;;;42.30;18.63;;;;;;;8.02;77.15;100937.75;5049507;28;20100;-76
2022/12/16 00:33:35;;;;;;;33.00;16.63;;;;;;;8.19;77.17;100937.50;5050900;28;20090;-75
2022/12/16 00:36:00;;;;;;;30.13;16.55;;;;;;;8.32;77.39;100929.53;5050848;28;20397;-75
2022/12/16 00:38:26;;;;;;;29.13;15.55;;;;;;;7.93;77.61;100858.88;5050346;28;20043;-75
2022/12/16 00:40:51;;;;;;;29.90;15.13;;;;;;;8.37;77.90;100928.28;5050372;28;20025;-75
2022/12/16 00:43:18;;;;;;;26.05;15.40;;;;;;;8.42;78.32;100910.03;5050285;28;20032;-74
2022/12/16 00:45:44;;;;;;;25.35;15.13;;;;;;;8.57;78.60;100919.72;5050752;28;20033;-75
2022/12/16 00:48:10;;;;;;;25.25;15.20;;;;;;;8.73;79.08;100915.03;5048876;28;20037;-74
2022/12/16 00:50:36;;;;;;;26.17;17.33;;;;;;;8.58;79.43;100858.91;5050270;28;20029;-76
2022/12/16 00:53:02;;;;;;;28.35;18.38;;;;;;;9.04;79.55;100903.00;5050119;28;20032;-75
2022/12/16 00:55:27;;;;;;;31.88;17.38;;;;;;;9.11;79.78;100887.34;5050127;28;20027;-76
2022/12/16 00:57:53;;;;;;;24.02;15.35;;;;;;;9.04;79.57;100872.63;5031258;28;20049;-75
2022/12/16 01:00:19;;;;;;;24.48;15.65;;;;;;;9.27;79.33;100904.91;5050150;28;20025;-76
2022/12/16 01:02:47;;;;;;;26.50;15.80;;;;;;;9.42;79.22;100902.13;5050386;28;20203;-75
2022/12/16 01:05:16;;;;;;;28.75;16.08;;;;;;;9.53;78.83;100892.31;5051489;28;20025;-76
2022/12/16 01:07:42;;;;;;;23.50;15.50;;;;;;;9.58;78.53;100892.81;5050187;28;20579;-77
2022/12/16 01:10:09;;;;;;;61.33;31.52;;;;;;;9.66;78.10;100881.53;5053941;28;20114;-75
2022/12/16 01:12:35;;;;;;;32.50;17.63;;;;;;;9.70;78.19;100889.22;5050268;28;20507;-75
2022/12/16 01:15:01;;;;;;;27.20;17.70;;;;;;;9.74;79.11;100887.19;5050266;28;20366;-75
2022/12/16 01:17:27;;;;;;;26.00;17.63;;;;;;;9.80;80.37;100887.59;5049826;28;20444;-75
2022/12/16 01:19:52;;;;;;;32.05;20.38;;;;;;;9.83;81.27;100876.63;5050000;28;20025;-75
2022/12/16 01:22:19;;;;;;;31.73;18.55;;;;;;;9.81;81.36;100857.03;5049654;28;20037;-76
2022/12/16 01:24:44;;;;;;;27.55;19.27;;;;;;;10.01;81.56;100874.38;5049791;28;20417;-76
2022/12/16 01:27:11;;;;;;;24.98;18.98;;;;;;;10.11;81.12;100871.84;5050026;28;20043;-76
2022/12/16 01:29:37;;;;;;;25.52;18.88;;;;;;;10.24;81.52;100875.38;5051866;28;20021;-77
2022/12/16 01:32:03;;;;;;;24.45;18.27;;;;;;;10.26;82.22;100876.97;5052444;28;20029;-76
2022/12/16 01:34:28;;;;;;;30.83;18.35;;;;;;;10.36;82.62;100886.06;5051889;28;20119;-74
2022/12/16 01:36:54;;;;;;;27.13;18.20;;;;;;;10.49;83.02;100887.81;5050122;28;20032;-74
2022/12/16 01:39:19;;;;;;;23.08;16.92;;;;;;;10.62;82.71;100893.94;5049680;28;20497;-75
2022/12/16 01:41:44;;;;;;;22.58;16.50;;;;;;;10.73;82.39;100892.09;5049569;28;20033;-75
2022/12/16 01:44:17;;;;;;;22.58;16.25;;;;;;;10.75;81.85;100879.41;5049400;28;20044;-75
2022/12/16 01:46:49;;;;;;;21.30;15.77;;;;;;;10.90;82.00;100899.75;5049464;28;20024;-75
2022/12/16 01:49:21;;;;;;;23.52;15.20;;;;;;;10.98;82.02;100900.97;5049211;28;20045;-74
2022/12/16 01:51:47;;;;;;;20.52;15.20;;;;;;;10.99;82.07;100902.69;5049417;28;20025;-74
2022/12/16 01:54:18;;;;;;;19.00;14.63;;;;;;;10.95;81.70;100887.78;5048004;28;20056;-75
2022/12/16 01:56:50;;;;;;;22.75;14.55;;;;;;;10.97;82.22;100896.56;5049993;28;20025;-74
2022/12/16 01:59:17;;;;;;;22.38;15.25;;;;;;;10.90;82.76;100886.28;5049848;28;20037;-75
2022/12/16 02:01:43;;;;;;;20.02;15.32;;;;;;;10.93;83.20;100896.81;5050161;28;20035;-75
2022/12/16 02:04:08;;;;;;;24.40;15.82;;;;;;;10.89;84.01;100875.63;5049454;28;20032;-75
2022/12/16 02:06:34;;;;;;;22.02;15.30;;;;;;;10.92;83.96;100878.94;5049140;28;20025;-77
2022/12/16 02:09:05;;;;;;;21.88;16.02;;;;;;;10.75;83.83;100852.50;5052547;28;20033;-75
2022/12/16 02:11:54;;;;;;;19.77;15.45;;;;;;;10.90;84.28;100880.91;5063890;28;20021;-75
2022/12/16 02:14:36;;;;;;;29.98;15.85;;;;;;;10.79;84.13;100878.19;5059571;28;20032;-77
2022/12/16 02:17:22;;;;;;;22.80;16.70;;;;;;;10.80;84.54;100893.34;5051427;28;20028;-76
2022/12/16 02:20:44;;;;;;;23.85;16.50;;;;;;;10.83;85.40;100878.81;5049372;28;20033;-74
2022/12/16 02:23:13;;;;;;;29.53;19.23;;;;;;;10.78;85.11;100864.88;5007066;28;20061;-75
2022/12/16 02:26:06;;;;;;;20.40;16.10;;;;;;;10.79;85.52;100872.81;5007487;28;20037;-75
2022/12/16 02:28:31;;;;;;;23.48;17.33;;;;;;;10.57;85.15;100840.50;5006789;28;20030;-75
2022/12/16 02:31:15;;;;;;;24.00;17.50;;;;;;;10.77;85.15;100872.06;5006936;28;20033;-74
2022/12/16 02:33:43;;;;;;;25.88;17.35;;;;;;;10.68;84.48;100858.47;5006596;28;20038;-75
2022/12/16 02:36:29;;;;;;;25.73;18.45;;;;;;;10.80;84.57;100874.53;5006832;28;20100;-76
2022/12/16 02:39:02;;;;;;;24.92;17.15;;;;;;;10.86;84.76;100874.03;5006927;28;20092;-75
2022/12/16 02:41:50;;;;;;;29.08;19.17;;;;;;;10.90;84.73;100863.91;5006940;28;20046;-76
2022/12/16 02:44:17;;;;;;;24.00;17.38;;;;;;;10.97;83.97;100880.41;5006963;28;20425;-76
2022/12/16 02:46:51;;;;;;;24.73;17.33;;;;;;;10.88;84.06;100850.59;5006746;28;20042;-74
2022/12/16 02:49:17;;;;;;;22.73;15.93;;;;;;;11.10;83.48;100873.09;5008786;28;20056;-75
2022/12/16 02:51:43;;;;;;;21.65;16.23;;;;;;;11.03;84.37;100883.50;5010481;28;20432;-76
2022/12/16 02:54:10;;;;;;;24.75;16.95;;;;;;;11.07;84.81;100876.03;5035350;28;20047;-75
2022/12/16 02:56:52;;;;;;;19.98;15.38;;;;;;;11.15;84.76;100878.97;5050950;28;20021;-76
2022/12/16 02:59:35;;;;;;;18.70;14.05;;;;;;;11.17;84.89;100877.84;5052361;28;20029;-74
2022/12/16 03:02:00;;;;;;;;;;;;;;;11.24;84.94;100880.91;5052795;28;20028;-76
2022/12/16 03:05:03;;;;;;;22.03;15.00;;;;;;;11.35;84.81;100884.44;5052254;28;20307;-74
2022/12/16 03:07:32;;;;;;;21.52;13.27;;;;;;;11.44;84.48;100890.94;5029915;28;20260;-76
2022/12/16 03:09:58;;;;;;;19.02;14.07;;;;;;;11.51;84.18;100881.38;5030005;28;20044;-76
2022/12/16 03:12:24;;;;;;;20.85;13.82;;;;;;;11.64;84.03;100873.16;5030978;28;20049;-76
2022/12/16 03:14:54;;;;;;;18.88;12.40;;;;;;;11.67;84.01;100876.47;5033663;28;20025;-76
2022/12/16 03:17:23;;;;;;;17.23;11.48;;;;;;;11.65;82.56;100883.78;5034902;28;20075;-74
2022/12/16 03:19:56;;;;;;;16.27;11.75;;;;;;;11.72;82.12;100885.03;5000820;28;20045;-75
2022/12/16 03:22:26;;;;;;;17.60;12.10;;;;;;;11.82;81.78;100877.06;5029453;28;20026;-75
2022/12/16 03:24:52;;;;;;;13.82;10.15;;;;;;;11.79;81.10;100869.22;5029276;28;20045;-75
2022/12/16 03:27:28;;;;;;;14.85;11.10;;;;;;;11.83;81.50;100876.91;5029819;28;20053;-74
2022/12/16 03:30:03;;;;;;;14.18;10.68;;;;;;;11.82;81.52;100867.16;5029303;28;20029;-75
2022/12/16 03:32:40;;;;;;;16.92;11.70;;;;;;;11.82;81.90;100864.44;5029457;28;20029;-75
2022/12/16 03:35:14;;;;;;;14.50;10.38;;;;;;;11.81;82.33;100862.72;5029131;28;20037;-75
2022/12/16 03:37:43;;;;;;;16.75;13.07;;;;;;;11.70;82.82;100833.13;5029168;28;20499;-75
2022/12/16 03:40:10;;;;;;;18.20;12.13;;;;;;;11.73;83.63;100838.28;5028936;28;20033;-75
2022/12/16 03:42:37;;;;;;;17.27;12.68;;;;;;;11.68;84.33;100855.78;5012965;28;20029;-75
2022/12/16 03:45:05;;;;;;;19.98;13.25;;;;;;;11.78;85.87;100857.59;5051393;28;20393;-74
2022/12/16 03:47:30;;;;;;;19.05;14.13;;;;;;;11.79;86.18;100843.16;5051472;28;20710;-74
2022/12/16 03:49:56;;;;;;;21.45;13.25;;;;;;;11.76;86.57;100838.00;5051108;28;20049;-76
2022/12/16 03:52:21;;;;;;;17.95;14.75;;;;;;;11.67;86.98;100833.34;5051500;28;20129;-75
2022/12/16 03:54:47;;;;;;;17.67;14.20;;;;;;;11.72;88.11;100847.31;5051121;28;20025;-76
2022/12/16 03:57:12;;;;;;;24.33;16.42;;;;;;;11.42;88.62;100790.56;5051157;28;20021;-75
2022/12/16 03:59:38;;;;;;;22.00;14.75;;;;;;;11.66;89.06;100834.31;5051335;28;20107;-75
2022/12/16 04:02:03;;;;;;;21.17;14.73;;;;;;;11.62;89.63;100819.38;5051431;28;20055;-76
2022/12/16 04:04:29;;;;;;;25.02;15.07;;;;;;;11.70;89.90;100843.91;5051216;28;20041;-74
2022/12/16 04:09:38;;;;;;;22.65;15.65;;;;;;;11.70;90.63;100835.81;5050874;28;20110;-75
2022/12/16 04:25:47;;;;;;;22.67;15.32;;;;;;;11.81;90.36;100814.22;5052105;28;20090;-75
2022/12/16 04:28:13;;;;;;;23.23;15.00;;;;;;;12.14;90.18;100863.63;5050937;28;20451;-76
2022/12/16 04:30:38;;;;;;;22.00;14.18;;;;;;;12.16;90.10;100867.03;5050916;28;20021;-76
